sensor_id;sensor_type;location;lat;lon;timestamp;temperature;humidity
78731;SHT31;68055;51.978;5.658;2023-12-22T00:01:37;9.0;73.2
78731;SHT31;68055;51.978;5.658;2023-12-22T00:04:05;9.0;73.7
78731;SHT31;68055;51.978;5.658;2023-12-22T00:06:34;9.0;74.2
78731;SHT31;68055;51.978;5.658;2023-12-22T00:09:03;9.0;74.2
78731;SHT31;68055;51.978;5.658;2023-12-22T00:11:32;9.0;74.0
78731;SHT31;68055;51.978;5.658;2023-12-22T00:14:00;9.0;74.6
78731;SHT31;68055;51.978;5.658;2023-12-22T00:16:29;9.0;74.6
78731;SHT31;68055;51.978;5.658;2023-12-22T00:18:57;9.0;75.1
78731;SHT31;68055;51.978;5.658;2023-12-22T00:21:26;9.0;75.1
78731;SHT31;68055;51.978;5.658;2023-12-22T00:23:55;9.0;75.3
78731;SHT31;68055;51.978;5.658;2023-12-22T00:26:24;9.0;75.6
78731;SHT31;68055;51.978;5.658;2023-12-22T00:28:53;9.0;75.5
78731;SHT31;68055;51.978;5.658;2023-12-22T00:31:21;9.0;74.8
78731;SHT31;68055;51.978;5.658;2023-12-22T00:33:50;9.0;74.4
78731;SHT31;68055;51.978;5.658;2023-12-22T00:36:18;9.0;72.7
78731;SHT31;68055;51.978;5.658;2023-12-22T00:38:50;9.0;71.6
78731;SHT31;68055;51.978;5.658;2023-12-22T00:41:19;8.9;70.9
78731;SHT31;68055;51.978;5.658;2023-12-22T00:43:47;8.9;70.4
78731;SHT31;68055;51.978;5.658;2023-12-22T00:46:18;8.8;70.2
78731;SHT31;68055;51.978;5.658;2023-12-22T00:48:46;8.7;70.9
78731;SHT31;68055;51.978;5.658;2023-12-22T00:51:15;8.6;70.7
78731;SHT31;68055;51.978;5.658;2023-12-22T00:53:44;8.6;71.2
78731;SHT31;68055;51.978;5.658;2023-12-22T00:56:13;8.5;71.4
78731;SHT31;68055;51.978;5.658;2023-12-22T00:58:41;8.5;71.6
78731;SHT31;68055;51.978;5.658;2023-12-22T01:01:10;8.4;71.9
78731;SHT31;68055;51.978;5.658;2023-12-22T01:03:38;8.4;72.8
78731;SHT31;68055;51.978;5.658;2023-12-22T01:06:07;8.3;73.2
78731;SHT31;68055;51.978;5.658;2023-12-22T01:08:36;8.3;73.2
78731;SHT31;68055;51.978;5.658;2023-12-22T01:11:05;8.3;73.6
78731;SHT31;68055;51.978;5.658;2023-12-22T01:13:33;8.3;73.8
78731;SHT31;68055;51.978;5.658;2023-12-22T01:16:02;8.2;74.4
78731;SHT31;68055;51.978;5.658;2023-12-22T01:18:31;8.2;74.8
78731;SHT31;68055;51.978;5.658;2023-12-22T01:21:00;8.2;74.7
78731;SHT31;68055;51.978;5.658;2023-12-22T01:23:29;8.2;74.8
78731;SHT31;68055;51.978;5.658;2023-12-22T01:25:57;8.2;74.9
78731;SHT31;68055;51.978;5.658;2023-12-22T01:28:27;8.3;74.8
78731;SHT31;68055;51.978;5.658;2023-12-22T01:30:55;8.3;75.3
78731;SHT31;68055;51.978;5.658;2023-12-22T01:33:24;8.3;75.6
78731;SHT31;68055;51.978;5.658;2023-12-22T01:35:52;8.3;75.6
78731;SHT31;68055;51.978;5.658;2023-12-22T01:38:21;8.3;75.5
78731;SHT31;68055;51.978;5.658;2023-12-22T01:40:50;8.3;75.5
78731;SHT31;68055;51.978;5.658;2023-12-22T01:43:18;8.3;75.3
78731;SHT31;68055;51.978;5.658;2023-12-22T01:45:49;8.3;75.4
78731;SHT31;68055;51.978;5.658;2023-12-22T01:48:20;8.3;75.7
78731;SHT31;68055;51.978;5.658;2023-12-22T01:50:50;8.3;76.0
78731;SHT31;68055;51.978;5.658;2023-12-22T01:53:21;8.3;75.7
78731;SHT31;68055;51.978;5.658;2023-12-22T01:55:50;8.3;75.4
78731;SHT31;68055;51.978;5.658;2023-12-22T01:58:22;8.3;75.4
78731;SHT31;68055;51.978;5.658;2023-12-22T02:00:52;8.3;75.1
78731;SHT31;68055;51.978;5.658;2023-12-22T02:03:21;8.3;75.0
78731;SHT31;68055;51.978;5.658;2023-12-22T02:05:53;8.3;75.0
78731;SHT31;68055;51.978;5.658;2023-12-22T02:08:22;8.3;75.2
78731;SHT31;68055;51.978;5.658;2023-12-22T02:10:52;8.3;75.5
78731;SHT31;68055;51.978;5.658;2023-12-22T02:13:21;8.3;75.6
78731;SHT31;68055;51.978;5.658;2023-12-22T02:15:59;8.3;75.6
78731;SHT31;68055;51.978;5.658;2023-12-22T02:18:34;8.4;75.7
78731;SHT31;68055;51.978;5.658;2023-12-22T02:21:03;8.4;75.4
78731;SHT31;68055;51.978;5.658;2023-12-22T02:23:32;8.4;75.6
78731;SHT31;68055;51.978;5.658;2023-12-22T02:26:06;8.4;75.7
78731;SHT31;68055;51.978;5.658;2023-12-22T02:28:40;8.5;75.6
78731;SHT31;68055;51.978;5.658;2023-12-22T02:31:17;8.5;75.6
78731;SHT31;68055;51.978;5.658;2023-12-22T02:33:47;8.5;75.2
78731;SHT31;68055;51.978;5.658;2023-12-22T02:36:20;8.5;74.9
78731;SHT31;68055;51.978;5.658;2023-12-22T02:38:54;8.5;74.6
78731;SHT31;68055;51.978;5.658;2023-12-22T02:41:23;8.6;74.4
78731;SHT31;68055;51.978;5.658;2023-12-22T02:43:52;8.6;74.5
78731;SHT31;68055;51.978;5.658;2023-12-22T02:46:21;8.6;74.7
78731;SHT31;68055;51.978;5.658;2023-12-22T02:48:50;8.6;74.8
78731;SHT31;68055;51.978;5.658;2023-12-22T02:51:18;8.6;74.5
78731;SHT31;68055;51.978;5.658;2023-12-22T02:53:47;8.6;74.5
78731;SHT31;68055;51.978;5.658;2023-12-22T02:56:15;8.6;74.1
78731;SHT31;68055;51.978;5.658;2023-12-22T02:58:44;8.6;73.8
78731;SHT31;68055;51.978;5.658;2023-12-22T03:01:12;8.6;73.8
78731;SHT31;68055;51.978;5.658;2023-12-22T03:03:41;8.6;73.7
78731;SHT31;68055;51.978;5.658;2023-12-22T03:06:09;8.6;73.1
78731;SHT31;68055;51.978;5.658;2023-12-22T03:08:38;8.6;72.9
78731;SHT31;68055;51.978;5.658;2023-12-22T03:11:08;8.6;72.7
78731;SHT31;68055;51.978;5.658;2023-12-22T03:13:37;8.6;72.7
78731;SHT31;68055;51.978;5.658;2023-12-22T03:16:09;8.5;72.9
78731;SHT31;68055;51.978;5.658;2023-12-22T03:18:39;8.5;72.9
78731;SHT31;68055;51.978;5.658;2023-12-22T03:21:08;8.6;72.8
78731;SHT31;68055;51.978;5.658;2023-12-22T03:23:41;8.6;72.5
78731;SHT31;68055;51.978;5.658;2023-12-22T03:26:12;8.6;72.0
78731;SHT31;68055;51.978;5.658;2023-12-22T03:28:40;8.6;72.1
78731;SHT31;68055;51.978;5.658;2023-12-22T03:31:09;8.6;72.0
78731;SHT31;68055;51.978;5.658;2023-12-22T03:33:38;8.6;72.0
78731;SHT31;68055;51.978;5.658;2023-12-22T03:36:07;8.6;71.7
78731;SHT31;68055;51.978;5.658;2023-12-22T03:38:35;8.7;71.8
78731;SHT31;68055;51.978;5.658;2023-12-22T03:41:04;8.7;71.8
78731;SHT31;68055;51.978;5.658;2023-12-22T03:43:35;8.8;72.0
78731;SHT31;68055;51.978;5.658;2023-12-22T03:46:03;8.8;71.7
78731;SHT31;68055;51.978;5.658;2023-12-22T03:48:32;8.8;71.5
78731;SHT31;68055;51.978;5.658;2023-12-22T03:51:01;8.9;71.5
78731;SHT31;68055;51.978;5.658;2023-12-22T03:53:30;8.9;71.2
78731;SHT31;68055;51.978;5.658;2023-12-22T03:55:58;8.9;71.4
78731;SHT31;68055;51.978;5.658;2023-12-22T03:58:27;9.0;70.8
78731;SHT31;68055;51.978;5.658;2023-12-22T04:00:56;9.0;69.3
78731;SHT31;68055;51.978;5.658;2023-12-22T04:03:25;9.0;68.7
78731;SHT31;68055;51.978;5.658;2023-12-22T04:05:54;9.0;69.7
78731;SHT31;68055;51.978;5.658;2023-12-22T04:08:22;9.0;70.1
78731;SHT31;68055;51.978;5.658;2023-12-22T04:10:51;9.0;70.6
78731;SHT31;68055;51.978;5.658;2023-12-22T04:13:19;8.9;71.0
78731;SHT31;68055;51.978;5.658;2023-12-22T04:15:48;8.8;71.3
78731;SHT31;68055;51.978;5.658;2023-12-22T04:18:17;8.8;71.9
78731;SHT31;68055;51.978;5.658;2023-12-22T04:20:45;8.7;72.4
78731;SHT31;68055;51.978;5.658;2023-12-22T04:23:16;8.7;72.7
78731;SHT31;68055;51.978;5.658;2023-12-22T04:25:44;8.7;73.2
78731;SHT31;68055;51.978;5.658;2023-12-22T04:28:13;8.6;73.4
78731;SHT31;68055;51.978;5.658;2023-12-22T04:30:42;8.6;73.6
78731;SHT31;68055;51.978;5.658;2023-12-22T04:33:10;8.6;73.6
78731;SHT31;68055;51.978;5.658;2023-12-22T04:35:39;8.6;74.0
78731;SHT31;68055;51.978;5.658;2023-12-22T04:38:09;8.6;74.3
78731;SHT31;68055;51.978;5.658;2023-12-22T04:40:37;8.6;74.3
78731;SHT31;68055;51.978;5.658;2023-12-22T04:43:06;8.6;74.4
78731;SHT31;68055;51.978;5.658;2023-12-22T04:45:34;8.6;74.4
78731;SHT31;68055;51.978;5.658;2023-12-22T04:48:03;8.6;74.3
78731;SHT31;68055;51.978;5.658;2023-12-22T04:50:32;8.6;73.7
78731;SHT31;68055;51.978;5.658;2023-12-22T04:53:01;8.6;74.0
78731;SHT31;68055;51.978;5.658;2023-12-22T04:55:29;8.6;74.1
78731;SHT31;68055;51.978;5.658;2023-12-22T04:58:00;8.6;74.2
78731;SHT31;68055;51.978;5.658;2023-12-22T05:00:30;8.6;74.2
78731;SHT31;68055;51.978;5.658;2023-12-22T05:02:59;8.6;74.2
78731;SHT31;68055;51.978;5.658;2023-12-22T05:05:28;8.6;74.0
78731;SHT31;68055;51.978;5.658;2023-12-22T05:07:56;8.7;74.1
78731;SHT31;68055;51.978;5.658;2023-12-22T05:10:25;8.7;73.7
78731;SHT31;68055;51.978;5.658;2023-12-22T05:12:54;8.7;73.4
78731;SHT31;68055;51.978;5.658;2023-12-22T05:15:22;8.7;73.6
78731;SHT31;68055;51.978;5.658;2023-12-22T05:17:51;8.8;73.8
78731;SHT31;68055;51.978;5.658;2023-12-22T05:20:20;8.8;73.4
78731;SHT31;68055;51.978;5.658;2023-12-22T05:22:48;8.8;73.2
78731;SHT31;68055;51.978;5.658;2023-12-22T05:25:17;8.8;72.9
78731;SHT31;68055;51.978;5.658;2023-12-22T05:27:45;8.9;73.1
78731;SHT31;68055;51.978;5.658;2023-12-22T05:30:14;8.9;72.9
78731;SHT31;68055;51.978;5.658;2023-12-22T05:32:43;8.9;72.6
78731;SHT31;68055;51.978;5.658;2023-12-22T05:35:14;9.0;72.1
78731;SHT31;68055;51.978;5.658;2023-12-22T05:37:43;9.0;72.1
78731;SHT31;68055;51.978;5.658;2023-12-22T05:40:13;9.0;72.2
78731;SHT31;68055;51.978;5.658;2023-12-22T05:42:42;9.1;71.9
78731;SHT31;68055;51.978;5.658;2023-12-22T05:45:11;9.1;72.3
78731;SHT31;68055;51.978;5.658;2023-12-22T05:47:40;9.1;72.2
78731;SHT31;68055;51.978;5.658;2023-12-22T05:50:11;9.1;71.9
78731;SHT31;68055;51.978;5.658;2023-12-22T05:52:40;9.2;72.0
78731;SHT31;68055;51.978;5.658;2023-12-22T05:55:10;9.2;72.0
78731;SHT31;68055;51.978;5.658;2023-12-22T05:57:39;9.2;71.9
78731;SHT31;68055;51.978;5.658;2023-12-22T06:00:08;9.3;71.7
78731;SHT31;68055;51.978;5.658;2023-12-22T06:02:38;9.3;71.7
78731;SHT31;68055;51.978;5.658;2023-12-22T06:05:07;9.3;72.0
78731;SHT31;68055;51.978;5.658;2023-12-22T06:07:35;9.4;71.8
78731;SHT31;68055;51.978;5.658;2023-12-22T06:10:04;9.4;72.0
78731;SHT31;68055;51.978;5.658;2023-12-22T06:12:33;9.4;72.1
78731;SHT31;68055;51.978;5.658;2023-12-22T06:15:02;9.4;72.1
78731;SHT31;68055;51.978;5.658;2023-12-22T06:17:30;9.5;72.0
78731;SHT31;68055;51.978;5.658;2023-12-22T06:19:59;9.5;72.1
78731;SHT31;68055;51.978;5.658;2023-12-22T06:22:28;9.5;71.9
78731;SHT31;68055;51.978;5.658;2023-12-22T06:24:56;9.6;72.3
78731;SHT31;68055;51.978;5.658;2023-12-22T06:27:24;9.6;72.0
78731;SHT31;68055;51.978;5.658;2023-12-22T06:29:53;9.6;72.0
78731;SHT31;68055;51.978;5.658;2023-12-22T06:32:22;9.7;72.1
78731;SHT31;68055;51.978;5.658;2023-12-22T06:34:50;9.7;72.0
78731;SHT31;68055;51.978;5.658;2023-12-22T06:37:19;9.8;72.1
78731;SHT31;68055;51.978;5.658;2023-12-22T06:39:47;9.8;71.9
78731;SHT31;68055;51.978;5.658;2023-12-22T06:42:18;9.8;71.6
78731;SHT31;68055;51.978;5.658;2023-12-22T06:44:47;9.9;71.7
78731;SHT31;68055;51.978;5.658;2023-12-22T06:47:16;9.9;71.3
78731;SHT31;68055;51.978;5.658;2023-12-22T06:49:45;9.9;71.5
78731;SHT31;68055;51.978;5.658;2023-12-22T06:52:13;9.9;71.3
78731;SHT31;68055;51.978;5.658;2023-12-22T06:54:42;10.0;71.4
78731;SHT31;68055;51.978;5.658;2023-12-22T06:57:10;10.0;71.1
78731;SHT31;68055;51.978;5.658;2023-12-22T06:59:39;10.1;71.4
78731;SHT31;68055;51.978;5.658;2023-12-22T07:02:10;10.1;71.4
78731;SHT31;68055;51.978;5.658;2023-12-22T07:05:05;10.1;71.6
78731;SHT31;68055;51.978;5.658;2023-12-22T07:07:37;10.1;71.2
78731;SHT31;68055;51.978;5.658;2023-12-22T07:10:09;10.2;71.2
78731;SHT31;68055;51.978;5.658;2023-12-22T07:12:39;10.2;71.1
78731;SHT31;68055;51.978;5.658;2023-12-22T07:15:08;10.2;70.9
78731;SHT31;68055;51.978;5.658;2023-12-22T07:17:37;10.3;71.0
78731;SHT31;68055;51.978;5.658;2023-12-22T07:20:06;10.3;70.7
78731;SHT31;68055;51.978;5.658;2023-12-22T07:22:35;10.3;70.7
78731;SHT31;68055;51.978;5.658;2023-12-22T07:25:04;10.4;70.5
78731;SHT31;68055;51.978;5.658;2023-12-22T07:27:34;10.4;70.2
78731;SHT31;68055;51.978;5.658;2023-12-22T07:30:03;10.4;70.3
78731;SHT31;68055;51.978;5.658;2023-12-22T07:32:32;10.4;70.4
78731;SHT31;68055;51.978;5.658;2023-12-22T07:35:01;10.4;70.3
78731;SHT31;68055;51.978;5.658;2023-12-22T07:37:29;10.5;70.5
78731;SHT31;68055;51.978;5.658;2023-12-22T07:39:58;10.5;70.3
78731;SHT31;68055;51.978;5.658;2023-12-22T07:42:26;10.5;70.1
78731;SHT31;68055;51.978;5.658;2023-12-22T07:44:55;10.6;70.2
78731;SHT31;68055;51.978;5.658;2023-12-22T07:47:24;10.6;70.1
78731;SHT31;68055;51.978;5.658;2023-12-22T07:49:52;10.6;69.8
78731;SHT31;68055;51.978;5.658;2023-12-22T07:52:21;10.7;69.7
78731;SHT31;68055;51.978;5.658;2023-12-22T07:54:50;10.7;69.9
78731;SHT31;68055;51.978;5.658;2023-12-22T07:57:19;10.7;69.8
78731;SHT31;68055;51.978;5.658;2023-12-22T07:59:47;10.8;69.8
78731;SHT31;68055;51.978;5.658;2023-12-22T08:02:16;10.8;70.1
78731;SHT31;68055;51.978;5.658;2023-12-22T08:04:44;10.8;70.1
78731;SHT31;68055;51.978;5.658;2023-12-22T08:07:13;10.7;69.5
78731;SHT31;68055;51.978;5.658;2023-12-22T08:09:41;10.6;70.0
78731;SHT31;68055;51.978;5.658;2023-12-22T08:12:10;10.6;71.0
78731;SHT31;68055;51.978;5.658;2023-12-22T08:14:39;10.5;71.6
78731;SHT31;68055;51.978;5.658;2023-12-22T08:17:07;10.5;72.1
78731;SHT31;68055;51.978;5.658;2023-12-22T08:19:39;10.4;72.5
78731;SHT31;68055;51.978;5.658;2023-12-22T08:22:10;10.4;72.8
78731;SHT31;68055;51.978;5.658;2023-12-22T08:24:39;10.3;73.6
78731;SHT31;68055;51.978;5.658;2023-12-22T08:27:08;10.3;73.8
78731;SHT31;68055;51.978;5.658;2023-12-22T08:29:36;10.3;74.2
78731;SHT31;68055;51.978;5.658;2023-12-22T08:32:08;10.3;74.3
78731;SHT31;68055;51.978;5.658;2023-12-22T08:34:37;10.3;74.4
78731;SHT31;68055;51.978;5.658;2023-12-22T08:37:05;10.4;74.6
78731;SHT31;68055;51.978;5.658;2023-12-22T08:39:34;10.4;74.8
78731;SHT31;68055;51.978;5.658;2023-12-22T08:42:03;10.4;75.1
78731;SHT31;68055;51.978;5.658;2023-12-22T08:44:32;10.4;75.3
78731;SHT31;68055;51.978;5.658;2023-12-22T08:47:00;10.4;75.2
78731;SHT31;68055;51.978;5.658;2023-12-22T08:49:31;10.4;75.7
78731;SHT31;68055;51.978;5.658;2023-12-22T08:51:59;10.4;75.7
78731;SHT31;68055;51.978;5.658;2023-12-22T08:54:28;10.4;75.6
78731;SHT31;68055;51.978;5.658;2023-12-22T08:56:58;10.4;75.7
78731;SHT31;68055;51.978;5.658;2023-12-22T08:59:27;10.4;75.5
78731;SHT31;68055;51.978;5.658;2023-12-22T09:01:56;10.4;75.5
78731;SHT31;68055;51.978;5.658;2023-12-22T09:04:24;10.4;75.3
78731;SHT31;68055;51.978;5.658;2023-12-22T09:06:53;10.4;75.6
78731;SHT31;68055;51.978;5.658;2023-12-22T09:09:21;10.4;75.8
78731;SHT31;68055;51.978;5.658;2023-12-22T09:11:51;10.4;76.1
78731;SHT31;68055;51.978;5.658;2023-12-22T09:14:20;10.4;76.2
78731;SHT31;68055;51.978;5.658;2023-12-22T09:16:48;10.4;76.6
78731;SHT31;68055;51.978;5.658;2023-12-22T09:19:17;10.4;76.9
78731;SHT31;68055;51.978;5.658;2023-12-22T09:21:45;10.4;77.0
78731;SHT31;68055;51.978;5.658;2023-12-22T09:24:17;10.5;77.1
78731;SHT31;68055;51.978;5.658;2023-12-22T09:26:45;10.5;77.2
78731;SHT31;68055;51.978;5.658;2023-12-22T09:29:14;10.5;77.2
78731;SHT31;68055;51.978;5.658;2023-12-22T09:31:43;10.5;77.2
78731;SHT31;68055;51.978;5.658;2023-12-22T09:34:12;10.6;76.9
78731;SHT31;68055;51.978;5.658;2023-12-22T09:36:41;10.6;75.7
78731;SHT31;68055;51.978;5.658;2023-12-22T09:39:09;10.6;75.1
78731;SHT31;68055;51.978;5.658;2023-12-22T09:41:48;10.5;74.6
78731;SHT31;68055;51.978;5.658;2023-12-22T09:44:19;10.5;74.6
78731;SHT31;68055;51.978;5.658;2023-12-22T09:46:48;10.4;74.0
78731;SHT31;68055;51.978;5.658;2023-12-22T09:49:19;10.4;74.3
78731;SHT31;68055;51.978;5.658;2023-12-22T09:51:49;10.3;74.1
78731;SHT31;68055;51.978;5.658;2023-12-22T09:54:19;10.2;74.2
78731;SHT31;68055;51.978;5.658;2023-12-22T09:56:52;10.2;75.0
78731;SHT31;68055;51.978;5.658;2023-12-22T09:59:21;10.1;75.3
78731;SHT31;68055;51.978;5.658;2023-12-22T10:01:51;10.1;75.6
78731;SHT31;68055;51.978;5.658;2023-12-22T10:04:23;10.1;76.1
78731;SHT31;68055;51.978;5.658;2023-12-22T10:06:56;10.1;76.7
78731;SHT31;68055;51.978;5.658;2023-12-22T10:09:27;10.1;77.0
78731;SHT31;68055;51.978;5.658;2023-12-22T10:11:57;10.1;77.4
78731;SHT31;68055;51.978;5.658;2023-12-22T10:14:27;10.1;78.0
78731;SHT31;68055;51.978;5.658;2023-12-22T10:16:56;10.2;78.7
78731;SHT31;68055;51.978;5.658;2023-12-22T10:19:25;10.2;79.4
78731;SHT31;68055;51.978;5.658;2023-12-22T10:21:53;10.3;79.7
78731;SHT31;68055;51.978;5.658;2023-12-22T10:24:41;10.3;80.2
78731;SHT31;68055;51.978;5.658;2023-12-22T10:27:11;10.4;80.0
78731;SHT31;68055;51.978;5.658;2023-12-22T10:29:40;10.4;79.9
78731;SHT31;68055;51.978;5.658;2023-12-22T10:32:09;10.5;79.8
78731;SHT31;68055;51.978;5.658;2023-12-22T10:34:37;10.6;79.7
78731;SHT31;68055;51.978;5.658;2023-12-22T10:37:08;10.6;79.9
78731;SHT31;68055;51.978;5.658;2023-12-22T10:39:37;10.7;79.3
78731;SHT31;68055;51.978;5.658;2023-12-22T10:42:06;10.8;78.9
78731;SHT31;68055;51.978;5.658;2023-12-22T10:44:35;10.9;78.4
78731;SHT31;68055;51.978;5.658;2023-12-22T10:47:08;10.9;78.2
78731;SHT31;68055;51.978;5.658;2023-12-22T10:49:37;10.9;78.1
78731;SHT31;68055;51.978;5.658;2023-12-22T10:52:06;11.0;77.8
78731;SHT31;68055;51.978;5.658;2023-12-22T10:54:38;11.0;77.6
78731;SHT31;68055;51.978;5.658;2023-12-22T10:57:07;11.1;77.6
78731;SHT31;68055;51.978;5.658;2023-12-22T10:59:40;11.1;77.3
78731;SHT31;68055;51.978;5.658;2023-12-22T11:02:20;11.2;76.7
78731;SHT31;68055;51.978;5.658;2023-12-22T11:04:57;11.2;76.3
78731;SHT31;68055;51.978;5.658;2023-12-22T11:07:29;11.3;76.2
78731;SHT31;68055;51.978;5.658;2023-12-22T11:10:03;11.3;76.2
78731;SHT31;68055;51.978;5.658;2023-12-22T11:12:35;11.3;76.3
78731;SHT31;68055;51.978;5.658;2023-12-22T11:15:07;11.4;76.1
78731;SHT31;68055;51.978;5.658;2023-12-22T11:17:37;11.4;75.8
78731;SHT31;68055;51.978;5.658;2023-12-22T11:20:09;11.4;75.8
78731;SHT31;68055;51.978;5.658;2023-12-22T11:22:38;11.4;75.9
78731;SHT31;68055;51.978;5.658;2023-12-22T11:25:09;11.5;75.9
78731;SHT31;68055;51.978;5.658;2023-12-22T11:27:40;11.5;75.6
78731;SHT31;68055;51.978;5.658;2023-12-22T11:30:11;11.6;75.1
78731;SHT31;68055;51.978;5.658;2023-12-22T11:32:41;11.6;74.9
78731;SHT31;68055;51.978;5.658;2023-12-22T11:35:13;11.6;75.2
78731;SHT31;68055;51.978;5.658;2023-12-22T11:37:43;11.6;74.4
78731;SHT31;68055;51.978;5.658;2023-12-22T11:40:13;11.6;74.3
78731;SHT31;68055;51.978;5.658;2023-12-22T11:42:47;11.6;74.7
78731;SHT31;68055;51.978;5.658;2023-12-22T11:45:19;11.6;75.1
78731;SHT31;68055;51.978;5.658;2023-12-22T11:47:52;11.6;75.6
78731;SHT31;68055;51.978;5.658;2023-12-22T11:50:30;11.6;75.8
78731;SHT31;68055;51.978;5.658;2023-12-22T11:53:29;11.6;75.8
78731;SHT31;68055;51.978;5.658;2023-12-22T11:56:00;11.6;75.1
78731;SHT31;68055;51.978;5.658;2023-12-22T11:58:38;11.6;75.0
78731;SHT31;68055;51.978;5.658;2023-12-22T12:01:09;11.7;74.6
78731;SHT31;68055;51.978;5.658;2023-12-22T12:03:41;11.7;74.7
78731;SHT31;68055;51.978;5.658;2023-12-22T12:06:22;11.7;74.4
78731;SHT31;68055;51.978;5.658;2023-12-22T12:08:51;11.7;74.4
78731;SHT31;68055;51.978;5.658;2023-12-22T12:11:20;11.8;74.0
78731;SHT31;68055;51.978;5.658;2023-12-22T12:13:50;11.8;74.1
78731;SHT31;68055;51.978;5.658;2023-12-22T12:16:22;11.8;74.1
78731;SHT31;68055;51.978;5.658;2023-12-22T12:18:51;11.8;74.1
78731;SHT31;68055;51.978;5.658;2023-12-22T12:21:21;11.9;73.7
78731;SHT31;68055;51.978;5.658;2023-12-22T12:23:50;11.9;73.6
78731;SHT31;68055;51.978;5.658;2023-12-22T12:26:19;11.9;73.7
78731;SHT31;68055;51.978;5.658;2023-12-22T12:28:48;11.9;73.8
78731;SHT31;68055;51.978;5.658;2023-12-22T12:31:19;11.9;73.9
78731;SHT31;68055;51.978;5.658;2023-12-22T12:33:53;12.0;73.8
78731;SHT31;68055;51.978;5.658;2023-12-22T12:36:22;12.0;73.8
78731;SHT31;68055;51.978;5.658;2023-12-22T12:38:55;12.0;73.9
78731;SHT31;68055;51.978;5.658;2023-12-22T12:41:30;12.1;73.5
78731;SHT31;68055;51.978;5.658;2023-12-22T12:44:00;12.1;73.5
78731;SHT31;68055;51.978;5.658;2023-12-22T12:46:34;12.1;73.4
78731;SHT31;68055;51.978;5.658;2023-12-22T12:49:08;12.1;72.5
78731;SHT31;68055;51.978;5.658;2023-12-22T12:51:40;12.1;72.8
78731;SHT31;68055;51.978;5.658;2023-12-22T12:54:10;12.2;72.8
78731;SHT31;68055;51.978;5.658;2023-12-22T12:56:41;12.2;73.1
78731;SHT31;68055;51.978;5.658;2023-12-22T12:59:11;12.2;73.0
78731;SHT31;68055;51.978;5.658;2023-12-22T13:01:41;12.1;73.2
78731;SHT31;68055;51.978;5.658;2023-12-22T13:04:11;12.1;73.6
78731;SHT31;68055;51.978;5.658;2023-12-22T13:06:44;12.1;73.9
78731;SHT31;68055;51.978;5.658;2023-12-22T13:09:13;12.1;74.0
78731;SHT31;68055;51.978;5.658;2023-12-22T13:11:43;12.1;74.1
78731;SHT31;68055;51.978;5.658;2023-12-22T13:14:23;12.1;73.8
78731;SHT31;68055;51.978;5.658;2023-12-22T13:16:53;12.1;73.6
78731;SHT31;68055;51.978;5.658;2023-12-22T13:19:23;12.1;73.8
78731;SHT31;68055;51.978;5.658;2023-12-22T13:21:52;12.1;73.4
78731;SHT31;68055;51.978;5.658;2023-12-22T13:24:22;12.1;73.3
78731;SHT31;68055;51.978;5.658;2023-12-22T13:27:01;12.1;72.5
78731;SHT31;68055;51.978;5.658;2023-12-22T13:29:45;12.1;72.2
78731;SHT31;68055;51.978;5.658;2023-12-22T13:32:20;12.1;71.9
78731;SHT31;68055;51.978;5.658;2023-12-22T13:34:52;12.2;72.1
78731;SHT31;68055;51.978;5.658;2023-12-22T13:37:22;12.2;72.0
78731;SHT31;68055;51.978;5.658;2023-12-22T13:39:54;12.2;71.4
78731;SHT31;68055;51.978;5.658;2023-12-22T13:42:24;12.2;72.0
78731;SHT31;68055;51.978;5.658;2023-12-22T13:44:53;12.2;71.7
78731;SHT31;68055;51.978;5.658;2023-12-22T13:47:22;12.2;71.9
78731;SHT31;68055;51.978;5.658;2023-12-22T13:49:51;12.2;72.1
78731;SHT31;68055;51.978;5.658;2023-12-22T13:52:30;12.2;72.1
78731;SHT31;68055;51.978;5.658;2023-12-22T13:55:01;12.2;71.7
78731;SHT31;68055;51.978;5.658;2023-12-22T13:57:30;12.2;71.5
78731;SHT31;68055;51.978;5.658;2023-12-22T13:59:59;12.2;71.8
78731;SHT31;68055;51.978;5.658;2023-12-22T14:02:27;12.3;71.5
78731;SHT31;68055;51.978;5.658;2023-12-22T14:04:58;12.3;71.6
78731;SHT31;68055;51.978;5.658;2023-12-22T14:07:26;12.3;71.6
78731;SHT31;68055;51.978;5.658;2023-12-22T14:09:55;12.3;71.6
78731;SHT31;68055;51.978;5.658;2023-12-22T14:12:23;12.3;71.0
78731;SHT31;68055;51.978;5.658;2023-12-22T14:14:52;12.3;70.7
78731;SHT31;68055;51.978;5.658;2023-12-22T14:17:20;12.4;70.6
78731;SHT31;68055;51.978;5.658;2023-12-22T14:19:49;12.4;70.5
78731;SHT31;68055;51.978;5.658;2023-12-22T14:22:18;12.4;70.8
78731;SHT31;68055;51.978;5.658;2023-12-22T14:24:46;12.4;70.8
78731;SHT31;68055;51.978;5.658;2023-12-22T14:27:15;12.4;70.8
78731;SHT31;68055;51.978;5.658;2023-12-22T14:29:45;12.4;70.4
78731;SHT31;68055;51.978;5.658;2023-12-22T14:32:14;12.4;69.9
78731;SHT31;68055;51.978;5.658;2023-12-22T14:34:45;12.4;70.2
78731;SHT31;68055;51.978;5.658;2023-12-22T14:37:14;12.4;70.4
78731;SHT31;68055;51.978;5.658;2023-12-22T14:39:44;12.4;70.7
78731;SHT31;68055;51.978;5.658;2023-12-22T14:42:13;12.4;70.9
78731;SHT31;68055;51.978;5.658;2023-12-22T14:44:42;12.4;70.9
78731;SHT31;68055;51.978;5.658;2023-12-22T14:47:10;12.4;71.6
78731;SHT31;68055;51.978;5.658;2023-12-22T14:49:39;12.4;71.8
78731;SHT31;68055;51.978;5.658;2023-12-22T14:52:08;12.3;71.9
78731;SHT31;68055;51.978;5.658;2023-12-22T14:54:36;12.3;71.8
78731;SHT31;68055;51.978;5.658;2023-12-22T14:57:05;12.2;72.1
78731;SHT31;68055;51.978;5.658;2023-12-22T14:59:34;12.2;72.3
78731;SHT31;68055;51.978;5.658;2023-12-22T15:02:04;12.1;72.0
78731;SHT31;68055;51.978;5.658;2023-12-22T15:04:33;12.1;72.8
78731;SHT31;68055;51.978;5.658;2023-12-22T15:07:02;12.0;73.5
78731;SHT31;68055;51.978;5.658;2023-12-22T15:09:30;12.0;73.2
78731;SHT31;68055;51.978;5.658;2023-12-22T15:11:59;12.0;73.6
78731;SHT31;68055;51.978;5.658;2023-12-22T15:14:29;11.9;73.8
78731;SHT31;68055;51.978;5.658;2023-12-22T15:17:00;11.9;74.5
78731;SHT31;68055;51.978;5.658;2023-12-22T15:19:29;11.9;74.2
78731;SHT31;68055;51.978;5.658;2023-12-22T15:21:59;11.8;74.2
78731;SHT31;68055;51.978;5.658;2023-12-22T15:24:27;11.8;74.7
78731;SHT31;68055;51.978;5.658;2023-12-22T15:26:57;11.8;74.9
78731;SHT31;68055;51.978;5.658;2023-12-22T15:29:25;11.8;75.1
78731;SHT31;68055;51.978;5.658;2023-12-22T15:31:54;11.7;75.6
78731;SHT31;68055;51.978;5.658;2023-12-22T15:34:26;11.7;75.5
78731;SHT31;68055;51.978;5.658;2023-12-22T15:36:57;11.7;75.7
78731;SHT31;68055;51.978;5.658;2023-12-22T15:39:27;11.7;75.4
78731;SHT31;68055;51.978;5.658;2023-12-22T15:41:57;11.7;75.5
78731;SHT31;68055;51.978;5.658;2023-12-22T15:44:26;11.7;75.6
78731;SHT31;68055;51.978;5.658;2023-12-22T15:46:55;11.7;75.0
78731;SHT31;68055;51.978;5.658;2023-12-22T15:49:24;11.7;75.2
78731;SHT31;68055;51.978;5.658;2023-12-22T15:51:54;11.7;74.8
78731;SHT31;68055;51.978;5.658;2023-12-22T15:54:22;11.7;75.1
78731;SHT31;68055;51.978;5.658;2023-12-22T15:56:51;11.6;75.2
78731;SHT31;68055;51.978;5.658;2023-12-22T15:59:19;11.6;75.3
78731;SHT31;68055;51.978;5.658;2023-12-22T16:01:54;11.6;75.1
78731;SHT31;68055;51.978;5.658;2023-12-22T16:04:23;11.6;75.7
78731;SHT31;68055;51.978;5.658;2023-12-22T16:06:52;11.6;76.0
78731;SHT31;68055;51.978;5.658;2023-12-22T16:09:20;11.6;76.6
78731;SHT31;68055;51.978;5.658;2023-12-22T16:11:49;11.6;76.7
78731;SHT31;68055;51.978;5.658;2023-12-22T16:14:18;11.6;76.7
78731;SHT31;68055;51.978;5.658;2023-12-22T16:16:47;11.5;77.0
78731;SHT31;68055;51.978;5.658;2023-12-22T16:19:15;11.5;76.8
78731;SHT31;68055;51.978;5.658;2023-12-22T16:21:44;11.5;76.5
78731;SHT31;68055;51.978;5.658;2023-12-22T16:24:18;11.5;77.0
78731;SHT31;68055;51.978;5.658;2023-12-22T16:26:47;11.5;77.1